Archival Weather

Chicago O'Hare International

Chicago, Illinois (KORD)

Report from: Thursday, June 23, 2022 9:51 AM CDT
Current time: Sunday, June 26, 2022 11:39 AM CDT

Current weather
Weather history
Weather forecast

Temperature25.6°C (78.1°F)
Dew point12.8°C (55.0°F)
Winds 6 kts (3.1 m/s, 6.9 mph) East-Northeast (70°)
Visibility10 mi. (16.1 km)
Clouds Scattered clouds 25,000 ft. (7,620 m)
Altimeter30.08 in.Hg (1019 mB)
Relative humidity45 %
Density altitude1,253 ft. (382 m)
Sea-level pressure101.8 kPa (1018 mB, 30.06 in.Hg)
Remarks Automated weather observing station with precipitation discriminator
Pressure rising, then falling
Flight conditions Visual Meteorological Conditions
Raw dataKORD 231451Z 07006KT 10SM SCT250 26/13 A3008 RMK AO2 SLP180 T02560128 50002
An error has occurred. This application may no longer respond until reloaded. Reload 🗙